Terminal Aerodrome Forecast
Issued by NWS

Home | Current Version | Previous Version | Text Only | Print | Product List | Glossary On
Versions: 1 2 3 4 5 6 7 8 9 10 11 12 13 14 15 16 17
000
FTAK31 PAFA 202329
TAFABT
TAF
PABT 202329Z 2100/2124 VRB04KT 3SM -SN BR BKN035 OVC045
     FM210300 VRB04KT 1 1/2SM -SN BR SCT025 BKN035 OVC045
     FM210900 VRB04KT 5SM -SN BR SCT025 BKN035 OVC045
     FM211200 VRB04KT 6SM -SN BR SCT025 BKN035 OVC045=

USA.gov is the U.S. government's official web portal to all federal, state and local government web resources and services.